Terminal Aerodrome Forecast
Issued by NWS Upton, NY

Home | Current Version | Previous Version | Text Only | Print | Product List | Glossary On
Versions: 1 2 3 4 5 6 7 8 9 10 11 12 13 14 15 16 17 18 19 20 21 22 23 24 25 26 27 28 29 30 31 32 33 34 35 36 37 38
000
FTUS41 KOKX 020535
TAFJFK
TAF
KJFK 020535Z 0206/0312 29009KT P6SM SCT250
     FM020800 33005KT P6SM SCT250
     FM021300 VRB04KT P6SM BKN250
     FM021700 18010KT P6SM FEW050 BKN250
     FM030200 21005KT P6SM SCT150 BKN250
     FM030400 VRB04KT P6SM SCT150 BKN250
     FM030700 02006KT P6SM BKN250=

USA.gov is the U.S. government's official web portal to all federal, state and local government web resources and services.